Time;durP1;ratioP1;P1;durP2;ratioP2;P2;SDS_P1;SDS_P2;PMS_P1;PMS_P2;Temp;Humidity;BMP_temperature;BMP_pressure;BME280_temperature;BME280_humidity;BME280_pressure;Samples;Min_cycle;Max_cycle;Signal;HPM_P1;HPM_P2
2022/07/08 00:02:40;;;;;;;;;;;16.60;99.90;;;;;;8394087;28;19928;-77
2022/07/08 00:06:42;;;;;;;;;;;16.60;99.90;;;;;;8387566;28;20459;-77
2022/07/08 00:10:43;;;;;;;;;;;16.60;99.90;;;;;;8373233;28;19932;-77
2022/07/08 00:14:45;;;;;;;;;;;16.60;99.90;;;;;;8386824;28;19931;-77
2022/07/08 00:18:47;;;;;;;;;;;16.50;99.90;;;;;;8397586;28;20429;-77
2022/07/08 00:22:49;;;;;;;;;;;16.50;99.90;;;;;;8383728;28;19928;-77
2022/07/08 00:26:50;;;;;;;;;;;16.60;99.90;;;;;;8385612;28;20383;-76
2022/07/08 00:30:52;;;;;;;;;;;16.50;99.90;;;;;;8395608;28;19928;-77
2022/07/08 00:34:54;;;;;;;;;;;16.50;99.90;;;;;;8391623;28;19924;-76
2022/07/08 00:38:55;;;;;;;;;;;16.50;99.90;;;;;;8382682;28;19929;-77
2022/07/08 00:42:57;;;;;;;;;;;16.50;99.90;;;;;;8408478;28;19931;-76
2022/07/08 00:46:58;;;;;;;;;;;16.50;99.90;;;;;;8390365;28;19924;-77
2022/07/08 00:51:02;;;;;;;;;;;16.50;99.90;;;;;;8387050;28;19924;-77
2022/07/08 00:55:04;;;;;;;;;;;16.50;99.90;;;;;;8386428;28;20352;-77
2022/07/08 00:59:07;;;;;;;;;;;16.40;99.90;;;;;;8378645;28;19931;-77
2022/07/08 01:03:08;;;;;;;;;;;16.40;99.90;;;;;;8384495;28;19925;-77
2022/07/08 01:07:10;;;;;;;;;;;16.40;99.90;;;;;;8383358;28;20414;-77
2022/07/08 01:11:12;;;;;;;;;;;16.40;99.90;;;;;;8387446;28;19936;-77
2022/07/08 01:15:14;;;;;;;;;;;16.30;99.90;;;;;;8371589;28;19928;-77
2022/07/08 01:19:16;;;;;;;;;;;16.20;99.90;;;;;;8398186;28;19965;-77
2022/07/08 01:23:17;;;;;;;;;;;16.20;99.90;;;;;;8388297;28;19932;-76
2022/07/08 01:27:19;;;;;;;;;;;16.00;99.90;;;;;;8393767;28;19936;-76
2022/07/08 01:31:21;;;;;;;;;;;16.00;99.90;;;;;;8390455;28;19925;-77
2022/07/08 01:35:22;;;;;;;;;;;15.90;99.90;;;;;;8373915;28;20430;-77
2022/07/08 01:39:24;;;;;;;;;;;15.80;99.90;;;;;;8387345;28;20394;-77
2022/07/08 01:43:26;;;;;;;;;;;15.80;99.90;;;;;;8389967;28;19932;-77
2022/07/08 01:47:27;;;;;;;;;;;15.70;99.90;;;;;;8396029;28;19925;-77
2022/07/08 01:51:29;;;;;;;;;;;15.70;99.90;;;;;;8372113;28;19929;-76
2022/07/08 01:55:31;;;;;;;;;;;15.60;99.90;;;;;;8370129;28;19925;-76
2022/07/08 01:59:32;;;;;;;;;;;15.60;99.90;;;;;;8386949;28;20307;-77
2022/07/08 02:03:34;;;;;;;;;;;15.50;99.90;;;;;;8371812;28;20581;-76
2022/07/08 02:07:36;;;;;;;;;;;15.40;99.90;;;;;;8367986;28;20324;-77
2022/07/08 02:15:58;;;;;;;;;;;15.30;99.90;;;;;;8390638;28;19924;-77
2022/07/08 02:20:00;;;;;;;;;;;15.30;99.90;;;;;;8408921;28;19974;-77
2022/07/08 02:24:02;;;;;;;;;;;15.20;99.90;;;;;;8384021;28;19928;-77
2022/07/08 02:28:03;;;;;;;;;;;15.10;99.90;;;;;;8403308;28;19924;-77
2022/07/08 02:32:05;;;;;;;;;;;15.10;99.90;;;;;;8388776;28;19931;-77
2022/07/08 02:36:07;;;;;;;;;;;15.00;99.90;;;;;;8382399;28;20636;-77
2022/07/08 02:40:09;;;;;;;;;;;15.00;99.90;;;;;;8382207;28;19932;-77
2022/07/08 02:44:11;;;;;;;;;;;14.90;99.90;;;;;;8386245;28;20333;-77
2022/07/08 02:48:12;;;;;;;;;;;14.80;99.90;;;;;;8389766;28;19932;-77
2022/07/08 02:52:14;;;;;;;;;;;14.80;99.90;;;;;;8385888;28;19925;-77
2022/07/08 02:56:16;;;;;;;;;;;14.80;99.90;;;;;;8377063;28;20004;-77
2022/07/08 03:00:17;;;;;;;;;;;14.70;99.90;;;;;;8385940;28;19924;-77
2022/07/08 03:04:19;;;;;;;;;;;14.70;99.90;;;;;;8383859;28;19935;-76
2022/07/08 03:08:21;;;;;;;;;;;14.60;99.90;;;;;;8375327;28;19928;-76
2022/07/08 03:12:22;;;;;;;;;;;14.60;99.90;;;;;;8384462;28;19932;-77
2022/07/08 03:16:24;;;;;;;;;;;14.50;99.90;;;;;;8379661;28;19924;-77
2022/07/08 03:20:26;;;;;;;;;;;14.50;99.90;;;;;;8392934;28;20298;-77
2022/07/08 03:24:28;;;;;;;;;;;14.40;99.90;;;;;;8379832;28;19925;-77
2022/07/08 03:28:29;;;;;;;;;;;14.40;99.90;;;;;;8362283;28;19932;-77
2022/07/08 03:32:31;;;;;;;;;;;14.40;99.90;;;;;;8378084;28;19924;-77
2022/07/08 03:36:33;;;;;;;;;;;14.30;99.90;;;;;;8382283;28;19928;-77
2022/07/08 03:44:56;;;;;;;;;;;14.20;99.90;;;;;;8388512;28;20336;-77
2022/07/08 03:48:57;;;;;;;;;;;14.20;99.90;;;;;;8371471;28;20379;-77
2022/07/08 03:52:59;;;;;;;;;;;14.10;99.90;;;;;;8394802;28;19931;-76
2022/07/08 03:57:00;;;;;;;;;;;14.20;99.90;;;;;;8390762;28;20368;-77
2022/07/08 04:01:03;;;;;;;;;;;14.20;99.90;;;;;;8389215;28;19925;-77
2022/07/08 04:05:05;;;;;;;;;;;14.20;99.90;;;;;;8386375;28;19925;-77
2022/07/08 04:09:06;;;;;;;;;;;14.20;99.90;;;;;;8396856;28;19932;-77
2022/07/08 04:13:08;;;;;;;;;;;14.20;99.90;;;;;;8379811;28;19931;-77
2022/07/08 04:17:10;;;;;;;;;;;14.20;99.90;;;;;;8384677;28;19981;-77
2022/07/08 04:21:12;;;;;;;;;;;14.20;99.90;;;;;;8378065;28;19925;-77
2022/07/08 04:25:13;;;;;;;;;;;14.30;99.90;;;;;;8392048;28;19935;-76
2022/07/08 04:29:15;;;;;;;;;;;14.30;99.90;;;;;;8389917;28;19932;-77
2022/07/08 04:33:17;;;;;;;;;;;14.40;99.90;;;;;;8376197;28;19928;-77
2022/07/08 04:37:18;;;;;;;;;;;14.40;99.90;;;;;;8398467;28;19925;-77
2022/07/08 04:41:20;;;;;;;;;;;14.50;99.90;;;;;;8393266;28;19944;-77
2022/07/08 04:45:22;;;;;;;;;;;14.60;99.90;;;;;;8388952;28;19931;-77
2022/07/08 04:49:24;;;;;;;;;;;14.70;99.90;;;;;;8385671;28;19935;-77
2022/07/08 04:53:26;;;;;;;;;;;14.70;99.90;;;;;;8402848;28;20383;-77
2022/07/08 04:57:32;;;;;;;;;;;14.80;99.90;;;;;;8386775;28;20276;-76
2022/07/08 05:01:34;;;;;;;;;;;14.80;99.90;;;;;;8388704;28;19928;-76
2022/07/08 05:05:35;;;;;;;;;;;14.90;99.90;;;;;;8409434;28;20345;-76
2022/07/08 05:09:37;;;;;;;;;;;14.90;99.90;;;;;;8410382;28;19924;-77
2022/07/08 05:13:39;;;;;;;;;;;15.00;99.90;;;;;;8386548;28;19931;-76
2022/07/08 05:17:40;;;;;;;;;;;15.10;99.90;;;;;;8394366;28;19928;-77
2022/07/08 05:21:42;;;;;;;;;;;15.10;99.90;;;;;;8384721;28;19962;-77
2022/07/08 05:25:44;;;;;;;;;;;15.20;99.90;;;;;;8385319;28;20447;-76
2022/07/08 05:29:46;;;;;;;;;;;15.30;99.90;;;;;;8400274;28;19932;-77
2022/07/08 05:33:48;;;;;;;;;;;15.40;99.90;;;;;;8373102;28;19933;-77
2022/07/08 05:37:49;;;;;;;;;;;15.60;99.90;;;;;;8390815;28;20403;-77
2022/07/08 05:41:51;;;;;;;;;;;15.70;99.90;;;;;;8380653;28;19933;-76
2022/07/08 05:45:52;;;;;;;;;;;15.70;99.90;;;;;;8385937;28;19928;-76
2022/07/08 05:49:54;;;;;;;;;;;15.80;99.90;;;;;;8377408;28;19933;-77
2022/07/08 05:53:56;;;;;;;;;;;15.80;99.90;;;;;;8365877;28;19925;-76
2022/07/08 05:57:58;;;;;;;;;;;15.80;99.90;;;;;;8365693;28;19935;-76
2022/07/08 06:01:59;;;;;;;;;;;15.90;99.90;;;;;;8370178;28;19933;-76
2022/07/08 06:06:01;;;;;;;;;;;15.90;99.90;;;;;;8372117;28;19935;-76
2022/07/08 06:10:05;;;;;;;;;;;15.90;99.90;;;;;;8370172;28;20050;-76
2022/07/08 06:14:07;;;;;;;;;;;15.90;99.90;;;;;;8374076;28;20303;-76
2022/07/08 06:18:08;;;;;;;;;;;15.90;99.90;;;;;;8376064;28;19929;-76
2022/07/08 06:22:10;;;;;;;;;;;16.00;99.90;;;;;;8362380;28;20339;-76
2022/07/08 06:26:12;;;;;;;;;;;16.00;99.90;;;;;;8366342;28;20371;-76
2022/07/08 06:30:14;;;;;;;;;;;16.00;99.90;;;;;;8372636;28;20461;-76
2022/07/08 06:34:15;;;;;;;;;;;16.10;99.90;;;;;;8373330;28;19962;-76
2022/07/08 06:38:17;;;;;;;;;;;16.10;99.90;;;;;;8364595;28;19932;-76
2022/07/08 06:42:20;;;;;;;;;;;16.10;99.90;;;;;;8371588;28;19928;-76
2022/07/08 06:46:21;;;;;;;;;;;16.20;99.90;;;;;;8349451;28;19924;-75
2022/07/08 06:50:23;;;;;;;;;;;16.20;99.90;;;;;;8365899;28;20290;-76
2022/07/08 06:54:37;;;;;;;;;;;16.30;99.90;;;;;;8364843;28;20292;-76
2022/07/08 06:58:39;;;;;;;;;;;16.40;99.90;;;;;;8361141;28;19954;-76
2022/07/08 07:02:40;;;;;;;;;;;16.40;99.90;;;;;;8363162;28;19928;-76
2022/07/08 07:06:42;;;;;;;;;;;16.50;99.90;;;;;;8357352;28;19947;-76
2022/07/08 07:10:44;;;;;;;;;;;16.50;99.90;;;;;;8365993;28;19925;-76
2022/07/08 07:14:45;;;;;;;;;;;16.60;99.90;;;;;;8359797;28;19952;-76
2022/07/08 07:18:47;;;;;;;;;;;16.70;99.90;;;;;;8366773;28;19931;-76
2022/07/08 07:22:49;;;;;;;;;;;16.80;99.90;;;;;;8379680;28;19933;-76
2022/07/08 07:26:50;;;;;;;;;;;16.90;99.90;;;;;;8362852;28;19936;-76
2022/07/08 07:30:52;;;;;;;;;;;17.00;99.90;;;;;;8364683;28;19925;-76
2022/07/08 07:34:54;;;;;;;;;;;17.10;99.90;;;;;;8356636;28;19932;-76
2022/07/08 07:38:55;;;;;;;;;;;17.10;99.90;;;;;;8363740;28;19939;-76
2022/07/08 07:42:57;;;;;;;;;;;17.20;99.90;;;;;;8364810;28;19935;-76
2022/07/08 07:46:59;;;;;;;;;;;17.30;99.90;;;;;;8378754;28;19935;-76
2022/07/08 07:51:01;;;;;;;;;;;17.30;99.90;;;;;;8363873;28;20248;-76
2022/07/08 07:55:02;;;;;;;;;;;17.40;99.90;;;;;;8360797;28;19977;-75
2022/07/08 07:59:07;;;;;;;;;;;17.40;99.90;;;;;;8357712;28;20330;-76
2022/07/08 08:03:09;;;;;;;;;;;17.60;99.90;;;;;;8360969;28;19959;-77
2022/07/08 08:07:10;;;;;;;;;;;17.60;99.90;;;;;;8372713;28;19935;-76
2022/07/08 08:11:13;;;;;;;;;;;17.80;99.90;;;;;;8368758;28;19935;-76
2022/07/08 08:15:15;;;;;;;;;;;17.90;99.90;;;;;;8369362;28;19932;-76
2022/07/08 08:19:16;;;;;;;;;;;18.00;99.90;;;;;;8365614;28;19964;-76
2022/07/08 08:23:18;;;;;;;;;;;18.10;99.90;;;;;;8368484;28;20011;-76
2022/07/08 08:27:23;;;;;;;;;;;18.20;99.90;;;;;;8380426;28;19924;-77
2022/07/08 08:31:25;;;;;;;;;;;18.30;99.90;;;;;;8372993;28;20384;-75
2022/07/08 08:35:27;;;;;;;;;;;18.30;99.90;;;;;;8372798;28;19928;-76
2022/07/08 08:39:28;;;;;;;;;;;18.30;99.90;;;;;;8373320;28;19924;-77
2022/07/08 08:43:30;;;;;;;;;;;18.30;99.90;;;;;;8364744;28;19937;-76
2022/07/08 08:47:33;;;;;;;;;;;18.30;99.90;;;;;;8361898;28;20322;-75
2022/07/08 08:51:34;;;;;;;;;;;18.40;99.90;;;;;;8368933;28;20284;-76
2022/07/08 08:55:37;;;;;;;;;;;18.40;99.90;;;;;;8360360;28;20367;-75
2022/07/08 08:59:39;;;;;;;;;;;18.40;99.90;;;;;;8364023;28;19924;-76
2022/07/08 09:03:41;;;;;;;;;;;18.50;99.90;;;;;;8366055;28;19928;-76
2022/07/08 09:07:43;;;;;;;;;;;18.50;99.90;;;;;;8366415;28;20207;-76
2022/07/08 09:11:45;;;;;;;;;;;18.60;99.90;;;;;;8366641;28;19929;-75
2022/07/08 09:15:48;;;;;;;;;;;18.60;99.90;;;;;;8363111;28;19955;-76
2022/07/08 09:19:50;;;;;;;;;;;18.70;99.90;;;;;;8365934;28;20974;-76
2022/07/08 09:23:53;;;;;;;;;;;18.80;99.90;;;;;;8361046;28;20284;-77
2022/07/08 09:27:56;;;;;;;;;;;18.90;99.90;;;;;;8366152;28;19932;-75
2022/07/08 09:32:11;;;;;;;;;;;18.90;99.90;;;;;;8366273;28;19931;-75
2022/07/08 09:36:12;;;;;;;;;;;19.00;99.90;;;;;;8363988;28;20015;-76
2022/07/08 09:40:18;;;;;;;;;;;19.10;99.90;;;;;;8369718;28;19924;-76
2022/07/08 09:44:24;;;;;;;;;;;19.20;99.90;;;;;;8368535;28;20015;-76
2022/07/08 09:48:26;;;;;;;;;;;19.30;99.90;;;;;;8367625;28;19936;-75
2022/07/08 09:52:28;;;;;;;;;;;19.40;99.90;;;;;;8364285;28;19932;-75
2022/07/08 09:56:29;;;;;;;;;;;19.50;99.90;;;;;;8362056;28;19936;-75
2022/07/08 10:00:31;;;;;;;;;;;19.60;99.90;;;;;;8363587;28;20380;-75
2022/07/08 10:04:33;;;;;;;;;;;19.70;99.90;;;;;;8362914;28;19931;-76
2022/07/08 10:08:35;;;;;;;;;;;19.80;99.90;;;;;;8365531;28;19932;-76
2022/07/08 10:12:37;;;;;;;;;;;19.90;99.90;;;;;;8361239;28;19929;-76
2022/07/08 10:16:39;;;;;;;;;;;20.00;99.90;;;;;;8362958;28;20244;-76
2022/07/08 10:20:46;;;;;;;;;;;20.10;99.90;;;;;;8380837;28;19967;-75
2022/07/08 10:24:49;;;;;;;;;;;20.30;99.90;;;;;;8348133;28;19925;-76
2022/07/08 10:29:12;;;;;;;;;;;20.30;99.90;;;;;;8362551;28;19933;-76
2022/07/08 10:33:18;;;;;;;;;;;20.30;99.90;;;;;;8366073;28;19925;-75
2022/07/08 10:37:20;;;;;;;;;;;20.30;99.90;;;;;;8359327;28;19983;-75
2022/07/08 10:41:23;;;;;;;;;;;20.30;99.90;;;;;;8365932;28;19932;-76
2022/07/08 10:45:25;;;;;;;;;;;20.40;99.90;;;;;;8343362;28;19925;-76
2022/07/08 10:49:39;;;;;;;;;;;20.40;99.90;;;;;;8362496;28;19933;-75
2022/07/08 10:53:47;;;;;;;;;;;20.50;99.90;;;;;;8365168;28;19936;-76
2022/07/08 10:57:53;;;;;;;;;;;20.50;99.90;;;;;;8366317;28;19936;-77
2022/07/08 11:02:03;;;;;;;;;;;20.60;99.90;;;;;;8365021;28;20478;-75
2022/07/08 11:06:05;;;;;;;;;;;20.60;99.90;;;;;;8371099;28;19925;-76
2022/07/08 11:10:08;;;;;;;;;;;20.80;99.90;;;;;;8365552;28;19929;-75
2022/07/08 11:14:10;;;;;;;;;;;20.90;99.90;;;;;;8357146;28;20560;-76
2022/07/08 11:18:19;;;;;;;;;;;21.00;99.90;;;;;;8361213;28;19932;-75
2022/07/08 11:22:22;;;;;;;;;;;21.10;99.90;;;;;;8362404;28;20028;-75
2022/07/08 11:26:26;;;;;;;;;;;21.20;99.90;;;;;;8367986;28;19963;-75
2022/07/08 11:30:30;;;;;;;;;;;21.30;99.90;;;;;;8366975;28;19929;-75
2022/07/08 11:34:32;;;;;;;;;;;21.40;99.90;;;;;;8368769;28;19944;-76
2022/07/08 11:38:37;;;;;;;;;;;21.40;99.90;;;;;;8366123;28;20391;-75
2022/07/08 11:42:39;;;;;;;;;;;21.50;99.90;;;;;;8364051;28;20337;-76
2022/07/08 11:46:48;;;;;;;;;;;21.50;99.90;;;;;;8382292;28;19932;-77
2022/07/08 11:50:52;;;;;;;;;;;21.60;99.90;;;;;;8368394;28;20016;-76
2022/07/08 11:54:54;;;;;;;;;;;21.70;99.90;;;;;;8375564;28;19924;-75
2022/07/08 11:58:56;;;;;;;;;;;21.70;99.90;;;;;;8376302;28;19929;-75
2022/07/08 12:02:58;;;;;;;;;;;21.70;99.90;;;;;;8370768;28;19932;-75
2022/07/08 12:07:00;;;;;;;;;;;21.80;99.90;;;;;;8368590;28;20346;-76
2022/07/08 12:11:15;;;;;;;;;;;21.90;99.90;;;;;;8376584;28;19970;-76
2022/07/08 12:15:17;;;;;;;;;;;22.00;99.90;;;;;;8377736;28;19939;-76
2022/07/08 12:19:31;;;;;;;;;;;22.00;99.90;;;;;;8377105;28;19928;-75
2022/07/08 12:23:42;;;;;;;;;;;22.00;99.90;;;;;;8369057;28;20035;-76
2022/07/08 12:27:44;;;;;;;;;;;22.10;99.90;;;;;;8379725;28;20288;-75
2022/07/08 12:31:47;;;;;;;;;;;22.10;99.90;;;;;;8362280;28;20406;-76
2022/07/08 12:35:48;;;;;;;;;;;22.10;99.90;;;;;;8373825;28;20043;-75
2022/07/08 12:39:50;;;;;;;;;;;22.20;99.90;;;;;;8372764;28;19925;-76
2022/07/08 12:43:52;;;;;;;;;;;22.30;99.90;;;;;;8369481;28;19936;-76
2022/07/08 12:47:53;;;;;;;;;;;22.40;99.90;;;;;;8362603;28;19939;-76
2022/07/08 12:51:55;;;;;;;;;;;22.50;99.90;;;;;;8362592;28;20391;-75
2022/07/08 12:55:57;;;;;;;;;;;22.50;99.90;;;;;;8387050;28;20335;-75
2022/07/08 12:59:59;;;;;;;;;;;22.50;99.90;;;;;;8389303;28;19931;-75
2022/07/08 13:04:00;;;;;;;;;;;22.60;99.90;;;;;;8364142;28;19924;-76
2022/07/08 13:08:02;;;;;;;;;;;22.60;99.90;;;;;;8384664;28;19928;-76
2022/07/08 13:12:04;;;;;;;;;;;22.60;99.90;;;;;;8366123;28;19932;-76
2022/07/08 13:16:05;;;;;;;;;;;22.60;99.90;;;;;;8361990;28;19932;-76
2022/07/08 13:20:08;;;;;;;;;;;22.60;99.90;;;;;;8367040;28;19928;-75
2022/07/08 13:24:10;;;;;;;;;;;22.70;99.90;;;;;;8368921;28;19933;-75
2022/07/08 13:28:11;;;;;;;;;;;22.70;99.90;;;;;;8376393;28;19928;-76
2022/07/08 13:32:21;;;;;;;;;;;22.80;99.90;;;;;;8373772;28;19925;-75
2022/07/08 13:36:22;;;;;;;;;;;22.80;99.90;;;;;;8373290;28;19947;-76
2022/07/08 13:40:24;;;;;;;;;;;22.90;99.90;;;;;;8374644;28;19924;-76
2022/07/08 13:44:26;;;;;;;;;;;23.00;99.90;;;;;;8372355;28;19928;-76
2022/07/08 13:48:28;;;;;;;;;;;22.90;99.90;;;;;;8370450;28;19950;-75
2022/07/08 13:52:29;;;;;;;;;;;22.90;99.90;;;;;;8361160;28;20272;-75
2022/07/08 13:56:36;;;;;;;;;;;23.00;99.90;;;;;;8379548;28;19985;-74
2022/07/08 14:00:37;;;;;;;;;;;23.10;99.90;;;;;;8363490;28;20189;-75
2022/07/08 14:04:39;;;;;;;;;;;23.10;99.90;;;;;;8357752;28;20441;-76
2022/07/08 14:08:41;;;;;;;;;;;23.20;99.90;;;;;;8365961;28;19940;-75
2022/07/08 14:12:42;;;;;;;;;;;23.20;99.90;;;;;;8361440;28;19928;-75
2022/07/08 14:16:44;;;;;;;;;;;23.20;99.90;;;;;;8369788;28;19924;-76
2022/07/08 14:20:45;;;;;;;;;;;23.10;99.90;;;;;;8379530;28;19932;-75
2022/07/08 14:24:47;;;;;;;;;;;23.20;99.90;;;;;;8353688;28;19928;-75
2022/07/08 14:28:49;;;;;;;;;;;23.20;99.90;;;;;;8368782;28;20299;-74
2022/07/08 14:32:50;;;;;;;;;;;23.30;99.90;;;;;;8380294;28;19940;-75
2022/07/08 14:36:52;;;;;;;;;;;23.40;99.90;;;;;;8358583;28;20368;-76
2022/07/08 14:40:54;;;;;;;;;;;23.60;99.90;;;;;;8364992;28;19947;-76
2022/07/08 14:44:55;;;;;;;;;;;23.70;99.90;;;;;;8359303;28;19933;-76
2022/07/08 14:48:57;;;;;;;;;;;23.80;99.90;;;;;;8363068;28;19936;-75
2022/07/08 14:52:59;;;;;;;;;;;23.70;99.90;;;;;;8360968;28;19939;-75
2022/07/08 14:57:01;;;;;;;;;;;23.70;99.90;;;;;;8384157;28;20528;-75
2022/07/08 15:01:03;;;;;;;;;;;23.80;99.90;;;;;;8384225;28;19932;-75
2022/07/08 15:05:06;;;;;;;;;;;23.90;99.90;;;;;;8369272;28;20376;-75
2022/07/08 15:09:07;;;;;;;;;;;23.90;99.90;;;;;;8383074;28;20380;-75
2022/07/08 15:13:09;;;;;;;;;;;23.90;99.90;;;;;;8372420;28;20260;-76
2022/07/08 15:17:11;;;;;;;;;;;23.90;99.90;;;;;;8367308;28;20406;-75
2022/07/08 15:21:12;;;;;;;;;;;24.00;99.90;;;;;;8366908;28;20376;-75
2022/07/08 15:25:14;;;;;;;;;;;24.00;99.90;;;;;;8372974;28;19925;-75
2022/07/08 15:29:16;;;;;;;;;;;23.90;99.90;;;;;;8367694;28;20702;-75
2022/07/08 15:33:19;;;;;;;;;;;23.90;99.90;;;;;;8371912;28;20382;-75
2022/07/08 15:37:21;;;;;;;;;;;23.90;99.90;;;;;;8369983;28;19931;-75
2022/07/08 15:41:25;;;;;;;;;;;23.80;99.90;;;;;;8369407;28;20287;-75
2022/07/08 15:45:27;;;;;;;;;;;23.60;99.90;;;;;;8384040;28;19929;-76
2022/07/08 15:49:30;;;;;;;;;;;23.50;99.90;;;;;;8354166;28;19963;-75
2022/07/08 15:53:31;;;;;;;;;;;23.50;99.90;;;;;;8372766;28;19924;-76
2022/07/08 15:57:36;;;;;;;;;;;23.70;99.90;;;;;;8369408;28;19966;-75
2022/07/08 16:01:38;;;;;;;;;;;23.90;99.90;;;;;;8371127;28;19940;-75
2022/07/08 16:05:39;;;;;;;;;;;24.10;99.90;;;;;;8374161;28;20012;-76
2022/07/08 16:09:41;;;;;;;;;;;24.20;99.90;;;;;;8371221;28;19924;-76
2022/07/08 16:13:43;;;;;;;;;;;24.60;99.90;;;;;;8384300;28;19928;-76
2022/07/08 16:17:44;;;;;;;;;;;25.00;99.90;;;;;;8370324;28;20395;-75
2022/07/08 16:21:46;;;;;;;;;;;24.80;99.90;;;;;;8360731;28;20485;-75
2022/07/08 16:25:48;;;;;;;;;;;24.80;99.90;;;;;;8370788;28;20663;-75
2022/07/08 16:29:49;;;;;;;;;;;25.00;99.90;;;;;;8392239;28;20391;-75
2022/07/08 16:33:51;;;;;;;;;;;25.20;99.90;;;;;;8379498;28;19929;-75
2022/07/08 16:37:53;;;;;;;;;;;25.60;99.90;;;;;;8375286;28;20398;-76
2022/07/08 16:41:54;;;;;;;;;;;26.00;99.90;;;;;;8377842;28;19924;-75
2022/07/08 16:45:56;;;;;;;;;;;26.30;99.90;;;;;;8376518;28;20376;-76
2022/07/08 16:49:58;;;;;;;;;;;26.40;99.90;;;;;;8377425;28;19941;-76
2022/07/08 16:53:59;;;;;;;;;;;26.50;99.90;;;;;;8377948;28;19925;-75
2022/07/08 16:58:01;;;;;;;;;;;26.50;99.90;;;;;;8372453;28;20283;-76
2022/07/08 17:02:03;;;;;;;;;;;26.40;99.90;;;;;;8376785;28;20387;-76
2022/07/08 17:06:05;;;;;;;;;;;26.30;99.90;;;;;;8376406;28;20360;-75
2022/07/08 17:10:07;;;;;;;;;;;26.20;99.90;;;;;;8370346;28;19925;-76
2022/07/08 17:14:11;;;;;;;;;;;26.30;99.90;;;;;;8367186;28;19932;-75
2022/07/08 17:18:13;;;;;;;;;;;26.30;99.90;;;;;;8369414;28;19925;-76
2022/07/08 17:22:15;;;;;;;;;;;26.30;99.90;;;;;;8368699;28;19929;-76
2022/07/08 17:26:16;;;;;;;;;;;26.20;99.90;;;;;;8372470;28;19928;-76
2022/07/08 17:30:19;;;;;;;;;;;26.00;99.90;;;;;;8369524;28;19929;-76
2022/07/08 17:34:21;;;;;;;;;;;25.80;99.90;;;;;;8372674;28;19932;-75
2022/07/08 17:38:22;;;;;;;;;;;25.60;99.90;;;;;;8365190;28;19940;-75
2022/07/08 17:42:24;;;;;;;;;;;25.30;99.90;;;;;;8366879;28;19955;-76
2022/07/08 17:46:26;;;;;;;;;;;25.00;99.90;;;;;;8341888;28;19932;-75
2022/07/08 17:50:28;;;;;;;;;;;24.70;99.90;;;;;;8359681;28;19932;-75
2022/07/08 17:54:30;;;;;;;;;;;24.50;99.90;;;;;;8368607;28;20276;-75
2022/07/08 17:58:32;;;;;;;;;;;24.30;99.90;;;;;;8363437;28;19925;-75
2022/07/08 18:02:34;;;;;;;;;;;24.20;99.90;;;;;;8359135;28;20590;-75
2022/07/08 18:06:36;;;;;;;;;;;24.00;99.90;;;;;;8363594;28;19932;-75
2022/07/08 18:10:37;;;;;;;;;;;23.90;99.90;;;;;;8367880;28;19925;-75
2022/07/08 18:14:39;;;;;;;;;;;23.90;99.90;;;;;;8361265;28;19924;-75
2022/07/08 18:18:41;;;;;;;;;;;23.80;99.90;;;;;;8363348;28;19936;-75
2022/07/08 18:22:42;;;;;;;;;;;23.80;99.90;;;;;;8353624;28;19925;-75
2022/07/08 18:26:44;;;;;;;;;;;23.70;99.90;;;;;;8360376;28;20023;-75
2022/07/08 18:30:46;;;;;;;;;;;23.60;99.90;;;;;;8364711;28;19929;-75
2022/07/08 18:34:48;;;;;;;;;;;23.60;99.90;;;;;;8367812;28;20316;-75
2022/07/08 18:38:50;;;;;;;;;;;23.70;99.90;;;;;;8375217;28;19929;-74
2022/07/08 18:42:51;;;;;;;;;;;23.70;99.90;;;;;;8361639;28;20027;-75
2022/07/08 18:46:53;;;;;;;;;;;23.60;99.90;;;;;;8351753;28;19954;-75
2022/07/08 18:50:55;;;;;;;;;;;23.50;99.90;;;;;;8362142;28;20176;-75
2022/07/08 18:54:56;;;;;;;;;;;23.50;99.90;;;;;;8342065;28;19928;-77
2022/07/08 18:58:58;;;;;;;;;;;23.50;99.90;;;;;;8340852;28;19978;-75
2022/07/08 19:03:00;;;;;;;;;;;23.50;99.90;;;;;;8354354;28;20386;-75
2022/07/08 19:07:02;;;;;;;;;;;23.50;99.90;;;;;;8363551;28;19970;-74
2022/07/08 19:11:04;;;;;;;;;;;23.40;99.90;;;;;;8352968;28;19928;-75
2022/07/08 19:15:06;;;;;;;;;;;23.30;99.90;;;;;;8376919;28;20278;-75
2022/07/08 19:19:08;;;;;;;;;;;23.20;99.90;;;;;;8356162;28;20725;-75
2022/07/08 19:23:11;;;;;;;;;;;23.20;99.90;;;;;;8359299;28;20044;-75
2022/07/08 19:27:13;;;;;;;;;;;23.10;99.90;;;;;;8354155;28;20396;-75
2022/07/08 19:31:15;;;;;;;;;;;23.00;99.90;;;;;;8361149;28;20357;-75
2022/07/08 19:35:17;;;;;;;;;;;22.90;99.90;;;;;;8364434;28;19936;-75
2022/07/08 19:39:18;;;;;;;;;;;22.70;99.90;;;;;;8364830;28;19932;-75
2022/07/08 19:43:20;;;;;;;;;;;22.70;99.90;;;;;;8360318;28;19929;-75
2022/07/08 19:47:22;;;;;;;;;;;22.60;99.90;;;;;;8362197;28;19932;-75
2022/07/08 19:51:43;;;;;;;;;;;22.50;99.90;;;;;;8368895;28;19968;-75
2022/07/08 19:55:45;;;;;;;;;;;22.40;99.90;;;;;;8358440;28;20433;-75
2022/07/08 19:59:47;;;;;;;;;;;22.40;99.90;;;;;;8376706;28;19932;-75
2022/07/08 20:03:49;;;;;;;;;;;22.30;99.90;;;;;;8365406;28;19933;-75
2022/07/08 20:07:50;;;;;;;;;;;22.20;99.90;;;;;;8370492;28;20221;-75
2022/07/08 20:11:52;;;;;;;;;;;22.20;99.90;;;;;;8366023;28;19939;-75
2022/07/08 20:15:54;;;;;;;;;;;22.20;99.90;;;;;;8361839;28;19928;-75
2022/07/08 20:19:55;;;;;;;;;;;22.10;99.90;;;;;;8362318;28;19935;-75
2022/07/08 20:23:57;;;;;;;;;;;21.90;99.90;;;;;;8368064;28;20648;-75
2022/07/08 20:27:59;;;;;;;;;;;21.90;99.90;;;;;;8385135;28;20252;-75
2022/07/08 20:32:04;;;;;;;;;;;21.70;99.90;;;;;;8367220;28;19928;-75
2022/07/08 20:36:06;;;;;;;;;;;21.60;99.90;;;;;;8368733;28;20015;-74
2022/07/08 20:40:09;;;;;;;;;;;21.50;99.90;;;;;;8359158;28;19932;-75
2022/07/08 20:44:11;;;;;;;;;;;21.40;99.90;;;;;;8360299;28;20264;-75
2022/07/08 20:48:13;;;;;;;;;;;21.40;99.90;;;;;;8366600;28;19925;-75
2022/07/08 20:52:14;;;;;;;;;;;21.30;99.90;;;;;;8370134;28;19933;-75
2022/07/08 20:56:16;;;;;;;;;;;21.20;99.90;;;;;;8379450;28;19928;-75
2022/07/08 21:00:17;;;;;;;;;;;21.20;99.90;;;;;;8361661;28;19932;-75
2022/07/08 21:04:19;;;;;;;;;;;21.20;99.90;;;;;;8382516;28;19932;-74
2022/07/08 21:08:21;;;;;;;;;;;21.20;99.90;;;;;;8385822;28;19932;-74
2022/07/08 21:12:22;;;;;;;;;;;21.10;99.90;;;;;;8380129;28;19925;-75
2022/07/08 21:16:24;;;;;;;;;;;21.10;99.90;;;;;;8394553;28;19931;-75
2022/07/08 21:20:26;;;;;;;;;;;21.00;99.90;;;;;;8383098;28;19932;-75
2022/07/08 21:24:27;;;;;;;;;;;21.00;99.90;;;;;;8393417;28;19924;-74
2022/07/08 21:28:29;;;;;;;;;;;20.90;99.90;;;;;;8380894;28;20299;-75
2022/07/08 21:32:31;;;;;;;;;;;20.80;99.90;;;;;;8388009;28;20428;-75
2022/07/08 21:36:33;;;;;;;;;;;20.80;99.90;;;;;;8400918;28;19932;-75
2022/07/08 21:40:35;;;;;;;;;;;20.70;99.90;;;;;;8384716;28;19931;-75
2022/07/08 21:44:37;;;;;;;;;;;20.70;99.90;;;;;;8387885;28;19925;-75
2022/07/08 21:48:38;;;;;;;;;;;20.70;99.90;;;;;;8389868;28;19925;-75
2022/07/08 21:52:40;;;;;;;;;;;20.70;99.90;;;;;;8378953;28;19932;-74
2022/07/08 21:56:42;;;;;;;;;;;20.60;99.90;;;;;;8370466;28;19932;-75
2022/07/08 22:00:43;;;;;;;;;;;20.60;99.90;;;;;;8379714;28;19924;-75
2022/07/08 22:04:45;;;;;;;;;;;20.50;99.90;;;;;;8388576;28;19946;-75
2022/07/08 22:08:47;;;;;;;;;;;20.40;99.90;;;;;;8384502;28;19931;-75
2022/07/08 22:12:48;;;;;;;;;;;20.30;99.90;;;;;;8380484;28;19928;-75
2022/07/08 22:16:53;;;;;;;;;;;20.30;99.90;;;;;;8389706;28;19939;-75
2022/07/08 22:20:54;;;;;;;;;;;20.20;99.90;;;;;;8383493;28;19932;-75
2022/07/08 22:24:56;;;;;;;;;;;20.10;99.90;;;;;;8380493;28;19925;-75
2022/07/08 22:28:58;;;;;;;;;;;20.10;99.90;;;;;;8383137;28;19924;-75
2022/07/08 22:33:00;;;;;;;;;;;20.00;99.90;;;;;;8386434;28;19936;-75
2022/07/08 22:37:02;;;;;;;;;;;19.90;99.90;;;;;;8375108;28;19932;-75
2022/07/08 22:41:04;;;;;;;;;;;19.90;99.90;;;;;;8376161;28;19943;-75
2022/07/08 22:45:06;;;;;;;;;;;19.80;99.90;;;;;;8379705;28;19931;-75
2022/07/08 22:49:07;;;;;;;;;;;19.80;99.90;;;;;;8384466;28;19932;-75
2022/07/08 22:53:09;;;;;;;;;;;19.70;99.90;;;;;;8388749;28;20315;-75
2022/07/08 22:57:11;;;;;;;;;;;19.70;99.90;;;;;;8373071;28;19932;-75
2022/07/08 23:01:13;;;;;;;;;;;19.60;99.90;;;;;;8382026;28;19924;-75
2022/07/08 23:05:15;;;;;;;;;;;19.50;99.90;;;;;;8387076;28;19958;-75
2022/07/08 23:09:18;;;;;;;;;;;19.50;99.90;;;;;;8381257;28;20435;-75
2022/07/08 23:13:20;;;;;;;;;;;19.40;99.90;;;;;;8384592;28;19939;-75
2022/07/08 23:17:23;;;;;;;;;;;19.30;99.90;;;;;;8386657;28;19925;-75
2022/07/08 23:21:25;;;;;;;;;;;19.20;99.90;;;;;;8359318;28;19965;-75
2022/07/08 23:25:27;;;;;;;;;;;19.20;99.90;;;;;;8384897;28;20379;-75
2022/07/08 23:29:28;;;;;;;;;;;19.10;99.90;;;;;;8385411;28;19924;-75
2022/07/08 23:33:30;;;;;;;;;;;19.10;99.90;;;;;;8381573;28;19970;-75
2022/07/08 23:37:32;;;;;;;;;;;19.10;99.90;;;;;;8376541;28;20272;-75